Terminal Aerodrome Forecast
Issued by NWS Pueblo, CO

Home | Current Version | Previous Version | Text Only | Print | Product List | Glossary On
Versions: 1 2 3 4 5 6 7 8 9 10 11 12 13 14 15 16 17 18 19 20 21 22 23 24 25 26 27
000
FTUS45 KPUB 221728
TAFPUB
TAF
KPUB 221728Z 2218/2318 30012G22KT P6SM SKC
     FM222000 34010KT P6SM FEW150 SCT250
     FM222300 VRB06KT P6SM SKC
     FM230200 33006KT P6SM FEW150=

USA.gov is the U.S. government's official web portal to all federal, state and local government web resources and services.